Terminal Aerodrome Forecast
Issued by NWS Dallas/Fort Worth, TX

Home | Current Version | Previous Version | Text Only | Print | Product List | Glossary On
Versions: 1 2 3 4 5 6 7 8 9 10 11 12 13 14 15 16 17 18 19 20 21 22 23 24 25 26 27 28 29 30 31 32 33 34 35
884
FTUS44 KFWD 190520
TAFDFW
TAF
KDFW 190520Z 1906/2012 22003KT P6SM SCT010 BKN025
     FM190800 21003KT 5SM BR OVC008
     FM191100 23004KT 3SM BR OVC004
     FM191600 19010KT P6SM BKN250
     FM191900 20016KT P6SM SCT250=

USA.gov is the U.S. government's official web portal to all federal, state and local government web resources and services.